To NAV CANADA Home Page Login to a new session Search on AWWS site Feedback and Comments Disclaimer Vers la page française équivalente Tips FAQ What's new on the site To the Forecasts and Observations / NOTAM section To "File a Flight Plan" website Publications and other links Update of the User's profile FIC Telephone Numbers My Weather Data Folder Route Weather Data Regional Weather Data Local Weather Data To the Forecasts and Observations / NOTAM section
Request Generated 10/28/2016 at 06:24:40 UTC . Weather information available at that time is displayed.



METAR CYTR 280600Z 29007KT 15SM BKN012 OVC018 01/M00 A3007 RMK SF6SC2 SLP186=
METAR CYTR 280500Z 30009KT 15SM FEW008 BKN010 OVC028 01/00 A3005 RMK SF1SF5SC2 SLP181=
METAR CYTR 280400Z 28008KT 15SM BKN012 OVC070 01/00 A3004 RMK SF7AC1 SLP177=

TAF CYTR 280530Z 2806/2906 30010KT P6SM SCT010 BKN030 TEMPO 2806/2815
FM281500 31012KT P6SM FEW015 SCT030
BECMG 2820/2822 27008KT
FM290300 14005KT P6SM BKN080 OVC150
Your time UTC time
Weather data provided by Environment Canada and NAV CANADA